createdAt,value
2022-12-09T00:02:31.493Z,97573.41
2022-12-09T00:05:34.220Z,97566.72
2022-12-09T00:08:36.980Z,97569.13
2022-12-09T00:11:39.736Z,97561.34
2022-12-09T00:14:42.410Z,97561.91
2022-12-09T00:17:46.900Z,97556.56
2022-12-09T00:20:49.517Z,97558.69
2022-12-09T00:23:53.318Z,97547.97
2022-12-09T00:26:56.044Z,97548.53
2022-12-09T00:29:58.679Z,97554.94
2022-12-09T00:33:03.236Z,97548.53
2022-12-09T00:36:07.380Z,97539.41
2022-12-09T00:39:12.137Z,97543.97
2022-12-09T00:42:14.946Z,97538.88
2022-12-09T00:45:17.681Z,97536.75
2022-12-09T00:48:21.774Z,97545.84
2022-12-09T00:51:26.562Z,97544.25
2022-12-09T00:54:29.564Z,97542.09
2022-12-09T00:57:32.872Z,97538.63
2022-12-09T01:00:35.948Z,97536.22
2022-12-09T01:03:40.739Z,97540.22
2022-12-09T01:06:44.106Z,97544.75
2022-12-09T01:09:47.143Z,97546.63
2022-12-09T01:12:49.914Z,97549.06
2022-12-09T01:15:52.728Z,97547.69
2022-12-09T01:18:59.559Z,97545.84
2022-12-09T01:22:02.647Z,97546.09
2022-12-09T01:25:05.989Z,97547.44
2022-12-09T01:28:08.665Z,97534.06
2022-12-09T01:31:13.885Z,97541.28
2022-12-09T01:34:18.194Z,97536.44
2022-12-09T01:37:21.170Z,97533.00
2022-12-09T01:40:24.302Z,97538.88
2022-12-09T01:43:27.389Z,97536.72
2022-12-09T01:46:30.465Z,97531.63
2022-12-09T01:49:38.535Z,97526.03
2022-12-09T01:52:41.494Z,97529.22
2022-12-09T01:55:45.173Z,97529.75
2022-12-09T01:58:48.420Z,97520.94
2022-12-09T02:01:52.604Z,97512.63
2022-12-09T02:04:56.784Z,97513.69
2022-12-09T02:08:00.086Z,97495.22
2022-12-09T02:11:09.431Z,97500.06
2022-12-09T02:14:17.902Z,97495.78
2022-12-09T02:17:28.084Z,97485.84
2022-12-09T02:20:36.668Z,97492.28
2022-12-09T02:23:41.609Z,97482.66
2022-12-09T02:26:46.825Z,97475.16
2022-12-09T02:29:58.595Z,97486.41
2022-12-09T02:33:15.535Z,97488.53
2022-12-09T02:36:21.547Z,97478.38
2022-12-09T02:39:27.818Z,97481.31
2022-12-09T02:42:33.587Z,97475.97
2022-12-09T02:45:37.122Z,97478.88
2022-12-09T02:48:42.474Z,97476.50
2022-12-09T02:51:46.860Z,97470.38
2022-12-09T02:54:49.600Z,97462.31
2022-12-09T02:57:56.901Z,97456.16
2022-12-09T03:00:59.894Z,97450.81
2022-12-09T03:04:03.890Z,97448.94
2022-12-09T03:07:14.817Z,97449.47
2022-12-09T03:10:19.703Z,97447.34
2022-12-09T03:13:32.242Z,97446.28
2022-12-09T03:16:37.702Z,97443.03
2022-12-09T03:19:44.809Z,97438.22
2022-12-09T03:22:49.824Z,97437.44
2022-12-09T03:25:54.883Z,97427.53
2022-12-09T03:28:59.834Z,97431.31
2022-12-09T03:32:03.018Z,97429.72
2022-12-09T03:35:09.553Z,97421.41
2022-12-09T03:38:16.621Z,97429.16
2022-12-09T03:41:23.609Z,97436.13
2022-12-09T03:44:31.856Z,97425.97
2022-12-09T03:47:35.608Z,97422.22
2022-12-09T03:50:41.383Z,97408.06
2022-12-09T03:53:49.793Z,97417.94
2022-12-09T03:56:55.489Z,97419.53
2022-12-09T04:00:00.967Z,97423.56
2022-12-09T04:03:04.247Z,97419.56
2022-12-09T04:06:07.647Z,97424.09
2022-12-09T04:09:13.899Z,97426.22
2022-12-09T04:12:17.088Z,97417.94
2022-12-09T04:15:19.988Z,97416.34
2022-12-09T04:18:23.625Z,97414.47
2022-12-09T04:21:27.529Z,97400.31
2022-12-09T04:24:31.730Z,97409.38
2022-12-09T04:27:35.016Z,97401.91
2022-12-09T04:30:37.718Z,97390.13
2022-12-09T04:33:41.252Z,97385.59
2022-12-09T04:36:43.897Z,97380.50
2022-12-09T04:39:48.175Z,97373.84
2022-12-09T04:42:50.786Z,97375.44
2022-12-09T04:45:53.744Z,97368.47
2022-12-09T04:48:56.952Z,97357.78
2022-12-09T04:52:00.156Z,97358.06
2022-12-09T04:55:04.677Z,97357.78
2022-12-09T04:58:07.551Z,97362.31
2022-12-09T05:01:15.630Z,97359.63
2022-12-09T05:04:19.951Z,97347.91
2022-12-09T05:07:25.352Z,97347.63
2022-12-09T05:10:29.556Z,97343.59
2022-12-09T05:13:32.748Z,97338.75
2022-12-09T05:16:35.747Z,97347.06
2022-12-09T05:19:38.856Z,97346.78
2022-12-09T05:22:41.779Z,97339.56
2022-12-09T05:25:46.024Z,97348.38
2022-12-09T05:28:48.879Z,97345.69
2022-12-09T05:31:52.611Z,97341.66
2022-12-09T05:34:55.453Z,97338.44
2022-12-09T05:37:58.411Z,97333.91
2022-12-09T05:41:02.808Z,97327.97
2022-12-09T05:44:05.774Z,97317.84
2022-12-09T05:47:08.676Z,97314.88
2022-12-09T05:50:12.320Z,97318.91
2022-12-09T05:53:15.641Z,97311.69
2022-12-09T05:56:21.395Z,97317.84
2022-12-09T05:59:24.316Z,97314.13
2022-12-09T06:02:27.118Z,97311.19
2022-12-09T06:05:30.121Z,97309.78
2022-12-09T06:08:33.292Z,97307.63
2022-12-09T06:11:37.671Z,97312.09
2022-12-09T06:14:40.566Z,97294.94
2022-12-09T06:17:43.420Z,97291.44
2022-12-09T06:20:46.179Z,97280.75
2022-12-09T06:23:49.794Z,97294.13
2022-12-09T06:26:55.703Z,97290.94
2022-12-09T06:29:58.939Z,97299.78
2022-12-09T06:33:02.162Z,97289.03
2022-12-09T06:36:06.587Z,97287.44
2022-12-09T06:39:11.067Z,97290.09
2022-12-09T06:42:15.640Z,97288.75
2022-12-09T06:45:18.672Z,97288.16
2022-12-09T06:48:21.664Z,97296.97
2022-12-09T06:51:26.774Z,97297.22
2022-12-09T06:54:30.372Z,97288.06
2022-12-09T06:57:35.713Z,97285.91
2022-12-09T07:00:40.437Z,97290.19
2022-12-09T07:03:46.748Z,97294.41
2022-12-09T07:06:49.840Z,97290.56
2022-12-09T07:09:53.435Z,97291.78
2022-12-09T07:12:57.583Z,97294.63
2022-12-09T07:16:00.587Z,97279.56
2022-12-09T07:19:04.236Z,97283.97
2022-12-09T07:22:07.492Z,97282.19
2022-12-09T07:25:11.196Z,97274.22
2022-12-09T07:28:15.685Z,97277.88
2022-12-09T07:31:21.280Z,97280.53
2022-12-09T07:34:24.275Z,97284.66
2022-12-09T07:37:27.650Z,97279.44
2022-12-09T07:40:30.944Z,97281.78
2022-12-09T07:43:36.100Z,97276.34
2022-12-09T07:46:39.785Z,97278.84
2022-12-09T07:49:42.918Z,97274.41
2022-12-09T07:52:45.798Z,97272.81
2022-12-09T07:55:49.004Z,97279.88
2022-12-09T07:58:54.642Z,97276.56
2022-12-09T08:02:04.194Z,97278.22
2022-12-09T08:05:10.543Z,97266.88
2022-12-09T08:08:13.949Z,97270.75
2022-12-09T08:11:19.804Z,97276.16
2022-12-09T08:14:23.986Z,97273.06
2022-12-09T08:17:27.406Z,97277.56
2022-12-09T08:20:30.966Z,97282.63
2022-12-09T08:23:34.932Z,97276.47
2022-12-09T08:26:39.437Z,97268.53
2022-12-09T08:29:44.448Z,97269.75
2022-12-09T08:32:48.514Z,97262.69
2022-12-09T08:35:51.774Z,97255.31
2022-12-09T08:38:55.417Z,97256.59
2022-12-09T08:41:58.260Z,97258.97
2022-12-09T08:45:03.256Z,97247.47
2022-12-09T08:48:07.048Z,97252.75
2022-12-09T08:51:11.383Z,97244.72
2022-12-09T08:54:14.636Z,97247.22
2022-12-09T08:57:17.938Z,97248.72
2022-12-09T09:00:23.257Z,97243.78
2022-12-09T09:03:27.320Z,97233.22
2022-12-09T09:06:30.272Z,97243.44
2022-12-09T09:09:33.447Z,97242.59
2022-12-09T09:12:42.370Z,97231.66
2022-12-09T09:15:48.078Z,97231.88
2022-12-09T09:18:52.722Z,97229.66
2022-12-09T09:21:56.234Z,97241.59
2022-12-09T09:24:59.549Z,97237.41
2022-12-09T09:28:02.933Z,97239.84
2022-12-09T09:31:09.410Z,97238.63
2022-12-09T09:34:13.195Z,97237.78
2022-12-09T09:37:15.986Z,97235.00
2022-12-09T09:40:19.774Z,97229.16
2022-12-09T09:43:25.312Z,97221.06
2022-12-09T09:46:36.368Z,97223.19
2022-12-09T09:49:46.260Z,97219.56
2022-12-09T09:52:51.279Z,97222.25
2022-12-09T09:55:58.288Z,97216.59
2022-12-09T09:59:10.432Z,97209.19
2022-12-09T10:02:30.844Z,97216.72
2022-12-09T10:05:36.129Z,97205.41
2022-12-09T10:08:43.616Z,97204.34
2022-12-09T10:11:56.557Z,97200.19
2022-12-09T10:15:03.540Z,97191.69
2022-12-09T10:18:12.987Z,97189.22
2022-12-09T10:21:18.758Z,97185.78
2022-12-09T10:24:25.031Z,97191.78
2022-12-09T10:27:32.146Z,97200.09
2022-12-09T10:30:43.685Z,97191.97
2022-12-09T10:33:50.589Z,97198.03
2022-12-09T10:36:53.836Z,97195.25
2022-12-09T10:40:03.444Z,97196.56
2022-12-09T10:43:38.864Z,97184.66
2022-12-09T10:46:42.696Z,97174.09
2022-12-09T10:49:47.524Z,97164.97
2022-12-09T10:52:50.772Z,97167.81
2022-12-09T10:55:54.923Z,97162.59
2022-12-09T10:59:10.800Z,97164.63
2022-12-09T11:02:21.084Z,97172.06
2022-12-09T11:05:29.071Z,97163.78
2022-12-09T11:08:33.268Z,97158.78
2022-12-09T11:11:41.389Z,97157.75
2022-12-09T11:14:51.752Z,97162.53
2022-12-09T11:17:59.856Z,97161.28
2022-12-09T11:21:06.261Z,97154.31
2022-12-09T11:24:21.332Z,97144.41
2022-12-09T11:27:28.079Z,97149.78
2022-12-09T11:30:33.348Z,97145.56
2022-12-09T11:33:37.585Z,97144.56
2022-12-09T11:36:44.997Z,97139.69
2022-12-09T11:39:50.651Z,97130.00
2022-12-09T11:42:54.652Z,97127.28
2022-12-09T11:45:57.299Z,97121.94
2022-12-09T11:49:03.784Z,97108.56
2022-12-09T11:52:24.058Z,97115.88
2022-12-09T11:55:27.846Z,97123.53
2022-12-09T11:58:34.946Z,97122.75
2022-12-09T12:01:45.920Z,97126.03
2022-12-09T12:04:56.861Z,97130.31
2022-12-09T12:11:40.882Z,97115.66
2022-12-09T12:14:45.268Z,97108.19
2022-12-09T12:17:50.927Z,97113.47
2022-12-09T12:21:15.872Z,97109.97
2022-12-09T12:24:46.826Z,97106.00
2022-12-09T12:28:01.436Z,97106.16
2022-12-09T12:31:13.243Z,97092.59
2022-12-09T12:34:27.209Z,97080.31
2022-12-09T12:37:41.335Z,97092.88
2022-12-09T12:40:48.226Z,97093.72
2022-12-09T12:44:18.887Z,97091.03
2022-12-09T12:47:24.978Z,97102.41
2022-12-09T12:50:44.582Z,97102.41
2022-12-09T12:53:52.475Z,97093.19
2022-12-09T12:57:09.415Z,97098.59
2022-12-09T13:00:16.269Z,97100.56
2022-12-09T13:03:24.035Z,97103.31
2022-12-09T13:06:40.853Z,97103.19
2022-12-09T13:09:46.274Z,97103.13
2022-12-09T13:12:56.783Z,97114.47
2022-12-09T13:16:02.194Z,97116.22
2022-12-09T13:19:13.401Z,97112.06
2022-12-09T13:22:21.859Z,97111.75
2022-12-09T13:25:28.407Z,97118.94
2022-12-09T13:28:40.349Z,97117.56
2022-12-09T13:31:49.431Z,97113.06
2022-12-09T13:34:55.127Z,97115.75
2022-12-09T13:38:01.816Z,97126.94
2022-12-09T13:41:59.039Z,97126.38
2022-12-09T13:45:07.624Z,97126.19
2022-12-09T13:48:38.615Z,97125.94
2022-12-09T13:51:45.927Z,97122.75
2022-12-09T13:54:49.408Z,97117.69
2022-12-09T13:57:55.285Z,97118.97
2022-12-09T14:01:06.043Z,97119.09
2022-12-09T14:04:15.056Z,97121.09
2022-12-09T14:07:24.155Z,97126.75
2022-12-09T14:10:38.383Z,97131.19
2022-12-09T14:13:41.120Z,97131.25
2022-12-09T14:16:45.511Z,97127.53
2022-12-09T14:19:56.499Z,97125.44
2022-12-09T14:23:13.516Z,97119.88
2022-12-09T14:26:35.299Z,97126.34
2022-12-09T14:29:54.351Z,97136.34
2022-12-09T14:32:58.802Z,97134.63
2022-12-09T14:36:05.307Z,97132.03
2022-12-09T14:39:24.341Z,97135.53
2022-12-09T14:42:36.284Z,97143.19
2022-12-09T14:45:49.384Z,97141.47
2022-12-09T14:48:57.192Z,97147.31
2022-12-09T14:52:01.710Z,97155.53
2022-12-09T14:55:08.401Z,97158.81
2022-12-09T14:58:19.629Z,97155.63
2022-12-09T15:01:22.468Z,97165.19
2022-12-09T15:04:31.890Z,97163.00
2022-12-09T15:07:35.787Z,97164.59
2022-12-09T15:10:39.499Z,97174.41
2022-12-09T15:13:44.303Z,97165.63
2022-12-09T15:16:50.578Z,97154.66
2022-12-09T15:20:02.313Z,97164.91
2022-12-09T15:23:07.315Z,97174.22
2022-12-09T15:26:20.466Z,97175.59
2022-12-09T15:29:23.880Z,97173.84
2022-12-09T15:32:29.520Z,97176.69
2022-12-09T15:35:34.849Z,97177.31
2022-12-09T15:38:42.336Z,97170.63
2022-12-09T15:42:12.227Z,97177.00
2022-12-09T15:45:17.279Z,97187.69
2022-12-09T15:48:22.068Z,97183.88
2022-12-09T15:51:27.146Z,97191.13
2022-12-09T15:54:32.209Z,97194.63
2022-12-09T15:57:36.264Z,97191.00
2022-12-09T16:00:40.560Z,97192.78
2022-12-09T16:03:43.358Z,97198.56
2022-12-09T16:06:47.877Z,97197.13
2022-12-09T16:10:07.962Z,97204.00
2022-12-09T16:13:14.607Z,97198.97
2022-12-09T16:16:25.655Z,97191.22
2022-12-09T16:19:34.956Z,97194.00
2022-12-09T16:22:39.588Z,97193.69
2022-12-09T16:25:45.829Z,97192.97
2022-12-09T16:28:55.678Z,97201.13
2022-12-09T16:32:21.335Z,97204.66
2022-12-09T16:35:27.115Z,97203.28
2022-12-09T16:38:32.317Z,97200.94
2022-12-09T16:41:56.700Z,97201.72
2022-12-09T16:45:14.146Z,97210.44
2022-12-09T16:48:17.844Z,97201.84
2022-12-09T16:51:24.554Z,97201.38
2022-12-09T16:54:28.674Z,97199.78
2022-12-09T16:57:31.592Z,97207.72
2022-12-09T17:00:34.159Z,97211.28
2022-12-09T17:03:39.443Z,97207.00
2022-12-09T17:06:42.396Z,97214.91
2022-12-09T17:09:46.557Z,97211.41
2022-12-09T17:12:49.986Z,97210.63
2022-12-09T17:15:58.109Z,97212.44
2022-12-09T17:19:01.199Z,97209.59
2022-12-09T17:22:05.637Z,97216.22
2022-12-09T17:25:10.723Z,97214.72
2022-12-09T17:28:13.367Z,97217.13
2022-12-09T17:31:18.355Z,97210.63
2022-12-09T17:34:21.555Z,97217.78
2022-12-09T17:37:24.384Z,97210.88
2022-12-09T17:40:28.498Z,97213.63
2022-12-09T17:43:31.585Z,97217.25
2022-12-09T17:46:34.912Z,97219.03
2022-12-09T17:49:38.093Z,97214.91
2022-12-09T17:52:42.428Z,97221.91
2022-12-09T17:55:46.371Z,97224.78
2022-12-09T17:58:49.692Z,97215.59
2022-12-09T18:01:52.314Z,97223.19
2022-12-09T18:04:54.977Z,97213.06
2022-12-09T18:07:57.778Z,97227.16
2022-12-09T18:11:05.474Z,97234.28
2022-12-09T18:14:09.885Z,97238.16
2022-12-09T18:17:13.458Z,97237.47
2022-12-09T18:20:16.443Z,97238.56
2022-12-09T18:23:29.295Z,97252.44
2022-12-09T18:26:38.303Z,97253.59
2022-12-09T18:29:44.713Z,97259.19
2022-12-09T18:32:47.405Z,97266.66
2022-12-09T18:35:50.128Z,97265.84
2022-12-09T18:38:53.863Z,97267.97
2022-12-09T18:41:58.034Z,97252.25
2022-12-09T18:45:00.663Z,97265.44
2022-12-09T18:48:03.679Z,97267.41
2022-12-09T18:51:08.646Z,97264.19
2022-12-09T18:54:16.272Z,97264.72
2022-12-09T18:57:20.220Z,97263.13
2022-12-09T19:00:23.165Z,97263.91
2022-12-09T19:03:25.762Z,97260.69
2022-12-09T19:06:29.878Z,97259.13
2022-12-09T19:09:34.947Z,97263.47
2022-12-09T19:12:46.922Z,97259.75
2022-12-09T19:15:50.115Z,97264.16
2022-12-09T19:18:53.593Z,97266.72
2022-12-09T19:21:56.353Z,97259.22
2022-12-09T19:24:59.108Z,97270.22
2022-12-09T19:28:03.156Z,97268.78
2022-12-09T19:31:14.175Z,97268.78
2022-12-09T19:34:18.498Z,97270.69
2022-12-09T19:37:21.166Z,97273.72
2022-12-09T19:40:23.978Z,97270.22
2022-12-09T19:43:28.097Z,97282.13
2022-12-09T19:46:30.849Z,97280.97
2022-12-09T19:49:33.592Z,97277.16
2022-12-09T19:52:36.869Z,97285.25
2022-12-09T19:55:39.929Z,97294.47
2022-12-09T19:58:45.057Z,97288.75
2022-12-09T20:01:47.903Z,97289.53
2022-12-09T20:04:51.381Z,97293.03
2022-12-09T20:07:54.724Z,97297.81
2022-12-09T20:10:57.357Z,97296.59
2022-12-09T20:14:02.967Z,97297.69
2022-12-09T20:17:05.796Z,97299.09
2022-12-09T20:20:10.694Z,97298.63
2022-12-09T20:23:13.688Z,97299.09
2022-12-09T20:26:18.980Z,97305.50
2022-12-09T20:29:23.166Z,97293.72
2022-12-09T20:32:26.043Z,97289.13
2022-12-09T20:35:28.729Z,97296.09
2022-12-09T20:38:31.897Z,97303.59
2022-12-09T20:41:34.840Z,97301.38
2022-12-09T20:44:38.971Z,97305.34
2022-12-09T20:47:42.170Z,97321.69
2022-12-09T20:50:45.037Z,97314.88
2022-12-09T20:53:48.754Z,97322.97
2022-12-09T20:56:51.467Z,97313.44
2022-12-09T20:59:55.580Z,97304.06
2022-12-09T21:02:58.333Z,97304.88
2022-12-09T21:06:00.963Z,97315.91
2022-12-09T21:09:05.284Z,97308.47
2022-12-09T21:12:08.130Z,97308.59
2022-12-09T21:15:12.823Z,97298.47
2022-12-09T21:18:15.557Z,97304.88
2022-12-09T21:21:19.103Z,97305.34
2022-12-09T21:24:24.418Z,97294.88
2022-12-09T21:27:27.529Z,97301.06
2022-12-09T21:30:31.500Z,97288.09
2022-12-09T21:33:34.653Z,97303.97
2022-12-09T21:36:39.612Z,97314.44
2022-12-09T21:39:42.476Z,97306.34
2022-12-09T21:42:45.785Z,97301.69
2022-12-09T21:45:50.662Z,97309.47
2022-12-09T21:48:59.945Z,97308.69
2022-12-09T21:52:07.273Z,97316.03
2022-12-09T21:55:11.859Z,97318.72
2022-12-09T21:58:15.072Z,97330.03
2022-12-09T22:01:21.504Z,97327.34
2022-12-09T22:04:24.119Z,97327.38
2022-12-09T22:07:26.729Z,97333.19
2022-12-09T22:10:30.370Z,97332.72
2022-12-09T22:13:39.010Z,97335.09
2022-12-09T22:16:45.765Z,97351.91
2022-12-09T22:20:06.281Z,97345.72
2022-12-09T22:23:12.777Z,97332.72
2022-12-09T22:26:16.720Z,97345.19
2022-12-09T22:29:19.527Z,97362.50
2022-12-09T22:32:23.682Z,97354.28
2022-12-09T22:35:26.688Z,97362.06
2022-12-09T22:38:29.350Z,97356.72
2022-12-09T22:41:33.912Z,97360.53
2022-12-09T22:44:36.506Z,97349.53
2022-12-09T22:47:40.537Z,97358.81
2022-12-09T22:50:43.176Z,97364.50
2022-12-09T22:53:46.403Z,97357.91
2022-12-09T22:56:49.126Z,97363.59
2022-12-09T22:59:51.754Z,97367.31
2022-12-09T23:02:56.041Z,97368.50
2022-12-09T23:06:02.316Z,97368.69
2022-12-09T23:09:05.822Z,97364.88
2022-12-09T23:12:08.989Z,97365.72
2022-12-09T23:15:12.373Z,97353.72
2022-12-09T23:18:16.415Z,97351.50
2022-12-09T23:21:22.483Z,97356.72
2022-12-09T23:24:25.279Z,97357.03
2022-12-09T23:27:28.162Z,97347.31
2022-12-09T23:30:30.977Z,97351.91
2022-12-09T23:33:36.314Z,97358.94
2022-12-09T23:36:41.227Z,97357.22
2022-12-09T23:39:44.164Z,97352.50
2022-12-09T23:42:46.781Z,97361.06
2022-12-09T23:45:49.404Z,97354.28
2022-12-09T23:48:54.698Z,97351.91
2022-12-09T23:51:57.345Z,97353.91
2022-12-09T23:55:04.354Z,97352.50
2022-12-09T23:58:07.266Z,97356.31
